Аэропорт: Аулие-Ата. Тараз

ICAO: UADD

METAR:
2018/07/16 19:30
UADD 161930Z 22004MPS 9999 NSC 22/12 Q1002 R13/0///65 NOSIG RMK QFE696/0928
METAR:
2017/07/22 21:03
TAF UADD 222000Z 2221/2309 02005G10MPS 9999 NSC